Time;durP1;ratioP1;P1;durP2;ratioP2;P2;SDS_P1;SDS_P2;PMS_P1;PMS_P2;Temp;Humidity;BMP_temperature;BMP_pressure;BME280_temperature;BME280_humidity;BME280_pressure;Samples;Min_cycle;Max_cycle;Signal;HPM_P1;HPM_P2
2022/09/24 00:01:11;;;;;;;28.10;17.03;;;15.10;99.90;;;;;;5073137;28;20240;-89
2022/09/24 00:03:37;;;;;;;31.63;17.73;;;15.10;99.90;;;;;;5073033;28;20208;-89
2022/09/24 00:06:04;;;;;;;28.17;16.20;;;15.10;99.90;;;;;;5073812;28;20240;-90
2022/09/24 00:08:31;;;;;;;31.77;18.63;;;15.10;99.90;;;;;;5075549;28;20240;-89
2022/09/24 00:11:02;;;;;;;25.97;16.27;;;15.10;99.90;;;;;;5076299;28;20188;-89
2022/09/24 00:13:29;;;;;;;35.67;18.20;;;15.10;99.90;;;;;;5073375;28;20181;-91
2022/09/24 00:15:54;;;;;;;24.17;14.77;;;15.10;99.90;;;;;;5077686;28;20733;-87
2022/09/24 00:18:20;;;;;;;26.10;13.37;;;15.00;99.90;;;;;;5059322;28;20230;-90
2022/09/24 00:20:46;;;;;;;28.60;16.17;;;15.10;99.90;;;;;;5073895;28;20221;-89
2022/09/24 00:23:12;;;;;;;24.33;14.17;;;15.10;99.90;;;;;;5058572;28;20224;-89
2022/09/24 00:28:31;;;;;;;25.33;13.97;;;15.20;99.90;;;;;;5074285;28;20258;-89
2022/09/24 00:30:58;;;;;;;24.07;13.00;;;15.10;99.90;;;;;;5073931;28;20412;-89
2022/09/24 00:33:27;;;;;;;20.20;9.53;;;15.20;99.90;;;;;;5071878;28;20229;-90
2022/09/24 00:35:57;;;;;;;13.07;8.70;;;15.10;99.90;;;;;;5075681;28;20220;-90
2022/09/24 00:38:23;;;;;;;13.13;6.97;;;15.20;99.90;;;;;;5089232;28;20217;-90
2022/09/24 00:40:49;;;;;;;8.37;3.67;;;15.20;99.90;;;;;;5073382;28;20181;-91
2022/09/24 00:43:34;;;;;;;8.37;2.00;;;15.30;99.90;;;;;;5056555;28;20696;-92
2022/09/24 00:46:28;;;;;;;2.03;1.47;;;15.30;99.90;;;;;;5071817;28;20224;-90
2022/09/24 00:49:00;;;;;;;6.73;1.23;;;15.20;99.90;;;;;;5071978;28;20224;-86
2022/09/24 00:51:29;;;;;;;2.03;1.13;;;15.20;99.90;;;;;;5071959;28;20225;-88
2022/09/24 00:54:02;;;;;;;3.03;1.10;;;15.30;99.90;;;;;;5072125;28;20315;-85
2022/09/24 00:56:31;;;;;;;2.67;1.80;;;15.20;99.90;;;;;;5085457;28;20217;-86
2022/09/24 00:59:01;;;;;;;5.40;1.87;;;15.20;99.90;;;;;;5074211;28;20189;-86
2022/09/24 01:01:28;;;;;;;2.20;1.63;;;15.20;99.90;;;;;;5055086;28;20189;-89
2022/09/24 01:03:56;;;;;;;2.23;1.17;;;15.20;99.90;;;;;;5072355;28;20247;-88
2022/09/24 01:06:22;;;;;;;1.20;0.93;;;15.20;99.90;;;;;;5057294;28;20243;-87
2022/09/24 01:08:49;;;;;;;1.60;1.40;;;15.10;99.90;;;;;;5071247;28;20232;-87
2022/09/24 01:11:35;;;;;;;2.20;1.03;;;15.10;99.90;;;;;;5071507;28;20224;-84
2022/09/24 01:14:10;;;;;;;1.40;1.30;;;15.10;99.90;;;;;;5069049;28;20181;-87
2022/09/24 01:16:52;;;;;;;3.87;1.20;;;15.00;99.90;;;;;;5072198;28;20525;-87
2022/09/24 01:19:42;;;;;;;1.67;1.20;;;15.00;99.90;;;;;;5069465;28;20307;-86
2022/09/24 01:22:30;;;;;;;1.13;0.90;;;15.00;99.90;;;;;;5072219;28;20640;-86
2022/09/24 01:25:14;;;;;;;8.50;1.93;;;15.00;99.90;;;;;;5069561;28;20669;-87
2022/09/24 01:28:21;;;;;;;8.30;0.80;;;15.00;99.90;;;;;;5072103;28;20228;-89
2022/09/24 01:30:54;;;;;;;4.87;1.20;;;15.00;99.90;;;;;;5016967;28;20229;-88
2022/09/24 01:33:24;;;;;;;3.50;1.17;;;15.00;99.90;;;;;;5069918;28;20217;-88
2022/09/24 01:35:58;;;;;;;2.53;0.90;;;15.00;99.90;;;;;;5070751;28;20224;-87
2022/09/24 01:38:28;;;;;;;1.07;0.73;;;15.00;99.90;;;;;;5071521;28;20290;-90
2022/09/24 01:40:59;;;;;;;3.10;1.50;;;15.00;99.90;;;;;;5070826;28;20169;-88
2022/09/24 01:43:26;;;;;;;2.20;2.00;;;15.00;99.90;;;;;;5055533;28;20189;-91
2022/09/24 01:45:57;;;;;;;1.77;1.23;;;15.00;99.90;;;;;;5068878;28;20228;-90
2022/09/24 01:48:25;;;;;;;2.27;1.10;;;15.00;99.90;;;;;;5075145;28;20396;-90
2022/09/24 01:51:01;;;;;;;6.60;1.30;;;15.00;99.90;;;;;;5072689;28;20247;-90
2022/09/24 01:53:38;;;;;;;1.87;1.17;;;14.90;99.90;;;;;;5072341;28;20214;-90
2022/09/24 01:56:16;;;;;;;5.40;1.37;;;15.00;99.90;;;;;;5070749;28;20192;-89
2022/09/24 01:58:52;;;;;;;3.17;1.47;;;14.90;99.90;;;;;;5072852;28;20266;-87
2022/09/24 02:01:22;;;;;;;5.90;1.70;;;15.00;99.90;;;;;;5073772;28;20209;-88
2022/09/24 02:04:02;;;;;;;2.60;1.60;;;15.00;99.90;;;;;;5073186;28;20228;-89
2022/09/24 02:06:37;;;;;;;2.53;0.80;;;15.00;99.90;;;;;;5070869;28;20286;-92
2022/09/24 02:09:03;;;;;;;4.47;2.03;;;15.00;99.90;;;;;;5072810;28;20303;-89
2022/09/24 02:11:31;;;;;;;0.60;0.60;;;14.90;99.90;;;;;;5069865;28;20302;-90
2022/09/24 02:14:08;;;;;;;1.20;1.10;;;14.90;99.90;;;;;;5070620;28;20197;-91
2022/09/24 02:16:44;;;;;;;2.23;1.53;;;14.90;99.90;;;;;;5070603;28;20184;-89
2022/09/24 02:19:16;;;;;;;2.00;0.80;;;14.90;99.90;;;;;;5074749;28;20224;-89
2022/09/24 02:21:44;;;;;;;5.87;1.30;;;14.80;99.90;;;;;;5068415;28;20213;-91
2022/09/24 02:24:15;;;;;;;3.97;1.60;;;14.80;99.90;;;;;;5071820;28;20267;-90
2022/09/24 02:26:41;;;;;;;3.50;1.03;;;14.90;99.90;;;;;;5072143;28;20220;-90
2022/09/24 02:29:07;;;;;;;1.93;1.33;;;14.90;99.90;;;;;;5052667;28;20220;-91
2022/09/24 02:31:38;;;;;;;3.57;1.73;;;14.90;99.90;;;;;;5035532;28;20198;-88
2022/09/24 02:34:19;;;;;;;5.87;1.27;;;14.90;99.90;;;;;;5072361;28;20269;-91
2022/09/24 02:36:48;;;;;;;2.53;1.70;;;14.90;99.90;;;;;;5068779;28;20281;-89
2022/09/24 02:39:13;;;;;;;3.73;1.30;;;14.80;99.90;;;;;;5052827;28;20216;-88
2022/09/24 02:41:41;;;;;;;3.10;1.17;;;14.80;99.90;;;;;;5037682;28;20689;-90
2022/09/24 02:44:07;;;;;;;1.63;1.53;;;14.70;99.90;;;;;;5054640;28;20556;-87
2022/09/24 02:46:33;;;;;;;3.70;1.80;;;14.60;99.90;;;;;;5074398;28;20192;-89
2022/09/24 02:48:58;;;;;;;3.33;1.17;;;14.60;99.90;;;;;;5060777;28;20591;-91
2022/09/24 02:51:24;;;;;;;1.87;1.07;;;14.60;99.90;;;;;;5058044;28;20217;-89
2022/09/24 02:53:50;;;;;;;9.10;1.60;;;14.60;99.90;;;;;;5075065;28;20923;-89
2022/09/24 02:56:16;;;;;;;2.23;0.57;;;14.50;99.90;;;;;;5058599;28;20220;-88
2022/09/24 02:58:42;;;;;;;1.20;0.67;;;14.50;99.90;;;;;;5057616;28;20201;-90
2022/09/24 03:01:07;;;;;;;5.17;1.40;;;14.50;99.90;;;;;;5041202;28;20221;-89
2022/09/24 03:03:33;;;;;;;1.23;1.10;;;14.50;99.90;;;;;;5057586;28;20694;-89
2022/09/24 03:05:59;;;;;;;3.83;1.13;;;14.40;99.90;;;;;;5055266;28;20227;-92
2022/09/24 03:08:25;;;;;;;3.50;0.90;;;14.40;99.90;;;;;;5055911;28;20234;-87
2022/09/24 03:10:54;;;;;;;7.47;1.43;;;14.30;99.90;;;;;;5057043;28;20188;-89
2022/09/24 03:13:20;;;;;;;10.67;1.07;;;14.30;99.90;;;;;;5093112;28;20207;-89
2022/09/24 03:15:47;;;;;;;3.53;0.60;;;14.30;99.90;;;;;;5058696;28;20217;-90
2022/09/24 03:18:13;;;;;;;6.77;1.67;;;14.20;99.90;;;;;;5074273;28;20708;-89
2022/09/24 03:20:39;;;;;;;1.87;1.60;;;14.20;99.90;;;;;;5072001;28;20745;-91
2022/09/24 03:23:05;;;;;;;6.30;0.70;;;14.20;99.90;;;;;;5055971;28;20195;-89
2022/09/24 03:25:32;;;;;;;7.57;1.20;;;14.20;99.90;;;;;;5074934;28;20224;-90
2022/09/24 03:27:57;;;;;;;2.67;0.90;;;14.20;99.90;;;;;;5076440;28;20228;-91
2022/09/24 03:33:08;;;;;;;2.07;1.17;;;14.20;99.90;;;;;;5060095;28;20251;-91
2022/09/24 03:35:33;;;;;;;1.67;0.77;;;14.20;99.90;;;;;;5039359;28;20236;-89
2022/09/24 03:37:59;;;;;;;1.03;1.03;;;14.20;99.90;;;;;;5056928;28;20217;-89
2022/09/24 03:40:25;;;;;;;12.83;2.03;;;14.20;99.90;;;;;;5058060;28;20884;-88
2022/09/24 03:42:50;;;;;;;2.40;1.03;;;14.20;99.90;;;;;;5058853;28;20269;-87
2022/09/24 03:45:16;;;;;;;1.57;0.60;;;14.20;99.90;;;;;;5041071;28;20702;-88
2022/09/24 03:47:42;;;;;;;1.53;0.97;;;14.20;99.90;;;;;;5057865;28;20213;-90
2022/09/24 03:50:11;;;;;;;2.43;1.10;;;14.20;99.90;;;;;;5074780;28;20220;-89
2022/09/24 03:52:38;;;;;;;3.57;1.37;;;14.10;99.90;;;;;;5075271;28;20238;-88
2022/09/24 03:55:04;;;;;;;7.13;2.40;;;14.10;99.90;;;;;;5058899;28;20227;-89
2022/09/24 03:57:30;;;;;;;2.30;1.07;;;14.10;99.90;;;;;;5055520;28;20307;-89
2022/09/24 03:59:57;;;;;;;1.93;0.80;;;14.10;99.90;;;;;;5058917;28;20304;-89
2022/09/24 04:02:23;;;;;;;3.77;1.53;;;14.10;99.90;;;;;;5057691;28;20213;-89
2022/09/24 04:04:49;;;;;;;1.07;0.70;;;14.10;99.90;;;;;;5073810;28;20196;-89
2022/09/24 04:07:15;;;;;;;4.43;0.93;;;14.10;99.90;;;;;;5040183;28;21174;-90
2022/09/24 04:09:40;;;;;;;5.10;1.17;;;14.20;99.90;;;;;;5041855;28;20327;-88
2022/09/24 04:12:06;;;;;;;2.13;1.70;;;14.20;99.90;;;;;;5055241;28;20248;-88
2022/09/24 04:14:32;;;;;;;0.97;0.97;;;14.20;99.90;;;;;;5040928;28;20255;-89
2022/09/24 04:16:57;;;;;;;11.83;1.03;;;14.20;99.90;;;;;;5065389;28;20193;-87
2022/09/24 04:19:25;;;;;;;5.63;0.90;;;14.20;99.90;;;;;;5073120;28;20667;-89
2022/09/24 04:21:51;;;;;;;2.63;1.33;;;14.20;99.90;;;;;;5058015;28;20216;-87
2022/09/24 04:24:17;;;;;;;2.10;0.83;;;14.20;99.90;;;;;;5058956;28;20204;-88
2022/09/24 04:26:43;;;;;;;9.60;1.63;;;14.20;99.90;;;;;;5071941;28;20283;-88
2022/09/24 04:29:09;;;;;;;5.20;1.17;;;14.20;99.90;;;;;;5076201;28;20202;-86
2022/09/24 04:31:35;;;;;;;3.17;1.17;;;14.20;99.90;;;;;;5041213;28;20192;-87
2022/09/24 04:34:00;;;;;;;2.00;0.80;;;14.20;99.90;;;;;;5041179;28;20224;-86
2022/09/24 04:36:26;;;;;;;2.07;0.63;;;14.20;99.90;;;;;;5057510;28;20240;-89
2022/09/24 04:38:52;;;;;;;1.97;0.77;;;14.20;99.90;;;;;;5075026;28;20221;-88
2022/09/24 04:41:18;;;;;;;5.00;1.30;;;14.30;99.90;;;;;;5055757;28;20691;-87
2022/09/24 04:43:46;;;;;;;3.57;0.63;;;14.30;99.90;;;;;;5058250;28;20188;-89
2022/09/24 04:46:13;;;;;;;2.47;1.20;;;14.30;99.90;;;;;;5055803;28;20299;-89
2022/09/24 04:48:38;;;;;;;2.47;0.73;;;14.30;99.90;;;;;;5073728;28;20237;-87
2022/09/24 04:51:06;;;;;;;2.67;0.83;;;14.30;99.90;;;;;;5059154;28;20227;-88
2022/09/24 04:53:34;;;;;;;2.53;2.00;;;14.30;99.90;;;;;;5073823;28;20213;-87
2022/09/24 04:55:59;;;;;;;5.10;1.00;;;14.30;99.90;;;;;;5072385;28;20216;-89
2022/09/24 04:58:25;;;;;;;0.73;0.53;;;14.30;99.90;;;;;;5057254;28;20283;-88
2022/09/24 05:00:52;;;;;;;1.03;0.87;;;14.30;99.90;;;;;;5056569;28;20409;-89
2022/09/24 05:03:20;;;;;;;5.40;0.60;;;14.30;99.90;;;;;;5073334;28;20274;-90
2022/09/24 05:05:46;;;;;;;0.70;0.70;;;14.30;99.90;;;;;;5058768;28;20211;-87
2022/09/24 05:08:12;;;;;;;1.43;1.13;;;14.30;99.90;;;;;;5056714;28;20224;-85
2022/09/24 05:10:38;;;;;;;8.63;1.33;;;14.30;99.90;;;;;;5055458;28;20188;-88
2022/09/24 05:13:04;;;;;;;3.10;1.13;;;14.30;99.90;;;;;;5057639;28;20220;-89
2022/09/24 05:15:30;;;;;;;3.23;0.53;;;14.30;99.90;;;;;;5057197;28;20253;-87
2022/09/24 05:17:57;;;;;;;5.10;0.80;;;14.30;99.90;;;;;;5074825;28;20229;-88
2022/09/24 05:20:23;;;;;;;6.13;1.00;;;14.30;99.90;;;;;;5057379;28;20219;-88
2022/09/24 05:22:49;;;;;;;1.20;0.50;;;14.30;99.90;;;;;;5072648;28;20189;-88
2022/09/24 05:25:17;;;;;;;1.40;0.57;;;14.30;99.90;;;;;;5072227;28;20657;-88
2022/09/24 05:27:45;;;;;;;2.10;1.53;;;14.30;99.90;;;;;;5074173;28;20225;-88
2022/09/24 05:30:11;;;;;;;1.20;0.73;;;14.40;99.90;;;;;;5055716;28;20233;-87
2022/09/24 05:32:37;;;;;;;7.27;0.97;;;14.40;99.90;;;;;;5072576;28;20220;-87
2022/09/24 05:35:03;;;;;;;0.70;0.60;;;14.40;99.90;;;;;;5056266;28;20247;-88
2022/09/24 05:37:28;;;;;;;3.10;1.63;;;14.40;99.90;;;;;;5056456;28;20192;-87
2022/09/24 05:39:56;;;;;;;0.90;0.50;;;14.40;99.90;;;;;;5057840;28;20216;-88
2022/09/24 05:42:22;;;;;;;6.07;1.17;;;14.40;99.90;;;;;;5053677;28;20230;-88
2022/09/24 05:44:48;;;;;;;2.57;1.40;;;14.40;99.90;;;;;;5054775;28;20673;-87
2022/09/24 05:47:14;;;;;;;2.40;0.83;;;14.40;99.90;;;;;;5037966;28;20659;-86
2022/09/24 05:49:41;;;;;;;3.77;1.03;;;14.40;99.90;;;;;;5057756;28;20217;-86
2022/09/24 05:52:07;;;;;;;5.10;1.03;;;14.40;99.90;;;;;;5039877;28;20229;-89
2022/09/24 05:54:32;;;;;;;3.07;0.53;;;14.40;99.90;;;;;;5058414;28;20217;-86
2022/09/24 05:56:58;;;;;;;0.83;0.83;;;14.40;99.90;;;;;;5072960;28;20319;-88
2022/09/24 05:59:24;;;;;;;3.77;0.60;;;14.50;99.90;;;;;;5037851;28;20209;-87
2022/09/24 06:01:50;;;;;;;3.60;0.70;;;14.50;99.90;;;;;;5041039;28;20181;-85
2022/09/24 06:04:17;;;;;;;3.50;1.00;;;14.50;99.90;;;;;;5056400;28;20196;-89
2022/09/24 06:06:42;;;;;;;1.23;0.50;;;14.60;99.90;;;;;;5052656;28;20244;-88
2022/09/24 06:09:08;;;;;;;2.00;0.90;;;14.50;99.90;;;;;;5071871;28;20268;-85
2022/09/24 06:11:34;;;;;;;3.80;0.70;;;14.50;99.90;;;;;;5070164;28;20205;-89
2022/09/24 06:14:02;;;;;;;11.80;0.90;;;14.60;99.90;;;;;;5050745;28;20211;-86
2022/09/24 06:16:28;;;;;;;1.77;0.70;;;14.60;99.90;;;;;;5072619;28;20181;-87
2022/09/24 06:18:53;;;;;;;0.90;0.70;;;14.60;99.90;;;;;;5055670;28;20227;-86
2022/09/24 06:21:20;;;;;;;2.57;0.57;;;14.60;99.90;;;;;;5056860;28;20594;-88
2022/09/24 06:23:47;;;;;;;1.03;0.67;;;14.60;99.90;;;;;;5057048;28;20228;-87
2022/09/24 06:26:13;;;;;;;2.00;1.43;;;14.70;99.90;;;;;;5054850;28;20670;-90
2022/09/24 06:28:40;;;;;;;2.17;0.60;;;14.70;99.90;;;;;;5056897;28;20318;-87
2022/09/24 06:31:07;;;;;;;6.00;0.97;;;14.70;99.90;;;;;;5068996;28;20228;-87
2022/09/24 06:33:32;;;;;;;3.33;1.13;;;14.70;99.90;;;;;;5074171;28;20248;-84
2022/09/24 06:36:00;;;;;;;7.50;1.20;;;14.70;99.90;;;;;;5054458;28;20259;-87
2022/09/24 06:38:26;;;;;;;1.03;0.93;;;14.70;99.90;;;;;;5073286;28;20270;-88
2022/09/24 06:40:52;;;;;;;7.03;1.03;;;14.70;99.90;;;;;;5074454;28;20202;-88
2022/09/24 06:43:18;;;;;;;6.17;0.90;;;14.80;99.90;;;;;;5076469;28;20177;-88
2022/09/24 06:45:44;;;;;;;6.80;0.87;;;14.80;99.90;;;;;;5041899;28;20217;-85
2022/09/24 06:48:11;;;;;;;1.43;0.83;;;14.80;99.90;;;;;;5070095;28;20292;-86
2022/09/24 06:50:42;;;;;;;6.17;1.50;;;14.90;99.90;;;;;;5071040;28;20208;-89
2022/09/24 06:53:09;;;;;;;3.73;1.17;;;14.90;99.90;;;;;;5071447;28;20182;-91
2022/09/24 06:55:36;;;;;;;3.23;0.87;;;14.90;99.90;;;;;;5073821;28;20242;-87
2022/09/24 06:58:13;;;;;;;1.23;1.10;;;14.90;99.90;;;;;;5070121;28;20341;-87
2022/09/24 07:00:39;;;;;;;4.33;1.60;;;14.90;99.90;;;;;;5071377;28;20444;-83
2022/09/24 07:03:06;;;;;;;2.13;0.80;;;15.00;99.90;;;;;;5070886;28;20712;-86
2022/09/24 07:05:33;;;;;;;1.53;0.50;;;15.00;99.90;;;;;;5071513;28;20343;-86
2022/09/24 07:07:59;;;;;;;6.90;0.83;;;15.00;99.90;;;;;;5052798;28;20186;-87
2022/09/24 07:10:26;;;;;;;2.00;0.93;;;15.00;99.90;;;;;;5070836;28;20232;-90
2022/09/24 07:12:52;;;;;;;3.63;0.90;;;15.00;99.90;;;;;;5057305;28;20225;-87
2022/09/24 07:15:18;;;;;;;3.73;1.10;;;15.00;99.90;;;;;;5070647;28;20221;-87
2022/09/24 07:17:44;;;;;;;1.10;1.00;;;15.00;99.90;;;;;;5072536;28;20219;-88
2022/09/24 07:20:10;;;;;;;1.87;1.03;;;15.00;99.90;;;;;;5036458;28;20228;-86
2022/09/24 07:22:41;;;;;;;6.20;1.23;;;15.00;99.90;;;;;;5055621;28;20189;-89
2022/09/24 07:25:09;;;;;;;1.63;1.33;;;15.00;99.90;;;;;;5073129;28;20311;-86
2022/09/24 07:27:34;;;;;;;3.60;0.80;;;15.00;99.90;;;;;;5073911;28;20210;-89
2022/09/24 07:30:00;;;;;;;3.30;0.80;;;15.10;99.90;;;;;;5052223;28;20240;-86
2022/09/24 07:32:26;;;;;;;0.77;0.40;;;15.00;99.90;;;;;;5055812;28;20219;-87
2022/09/24 07:34:53;;;;;;;2.67;2.20;;;14.90;99.90;;;;;;5059050;28;20185;-85
2022/09/24 07:37:19;;;;;;;4.90;1.23;;;15.00;99.90;;;;;;5054666;28;20296;-85
2022/09/24 07:39:44;;;;;;;2.10;1.00;;;15.00;99.90;;;;;;5059531;28;20225;-85
2022/09/24 07:42:10;;;;;;;2.77;0.60;;;15.10;99.90;;;;;;5056856;28;20244;-85
2022/09/24 07:44:36;;;;;;;4.63;1.20;;;15.10;99.90;;;;;;5071812;28;20229;-86
2022/09/24 07:47:02;;;;;;;2.70;0.67;;;15.00;99.90;;;;;;5055963;28;20583;-85
2022/09/24 07:49:31;;;;;;;3.83;1.03;;;15.10;99.90;;;;;;5074303;28;20201;-86
2022/09/24 07:51:57;;;;;;;3.07;0.60;;;15.10;99.90;;;;;;5072654;28;20271;-86
2022/09/24 07:54:23;;;;;;;1.83;0.57;;;15.10;99.90;;;;;;5071465;28;20205;-86
2022/09/24 07:56:49;;;;;;;1.03;0.77;;;15.10;99.90;;;;;;5054856;28;20704;-87
2022/09/24 07:59:14;;;;;;;1.83;1.47;;;15.10;99.90;;;;;;5039760;28;20254;-87
2022/09/24 08:01:40;;;;;;;1.40;0.87;;;15.10;99.90;;;;;;5072999;28;20224;-86
2022/09/24 08:04:06;;;;;;;1.23;0.50;;;15.20;99.90;;;;;;5071391;28;20312;-86
2022/09/24 08:06:36;;;;;;;7.00;0.93;;;15.40;99.90;;;;;;5037258;28;20213;-87
2022/09/24 08:09:02;;;;;;;2.13;0.83;;;15.90;99.90;;;;;;5072375;28;20407;-85
2022/09/24 08:11:28;;;;;;;0.57;0.57;;;16.20;99.90;;;;;;5075114;28;20289;-86
2022/09/24 08:13:56;;;;;;;1.07;0.93;;;16.40;99.90;;;;;;5057915;28;20254;-86
2022/09/24 08:16:23;;;;;;;6.33;1.57;;;16.30;99.90;;;;;;5070842;28;20194;-86
2022/09/24 08:18:49;;;;;;;2.53;1.00;;;17.00;99.90;;;;;;5070645;28;20224;-85
2022/09/24 08:21:14;;;;;;;2.60;2.10;;;18.40;99.90;;;;;;5054512;28;20764;-84
2022/09/24 08:23:41;;;;;;;4.27;1.30;;;18.20;99.90;;;;;;5052067;28;20213;-83
2022/09/24 08:26:08;;;;;;;1.97;0.77;;;18.10;99.90;;;;;;5070437;28;20208;-86
2022/09/24 08:28:36;;;;;;;5.13;1.33;;;18.00;99.90;;;;;;5055818;28;20209;-84
2022/09/24 08:31:07;;;;;;;4.90;1.20;;;18.10;99.90;;;;;;5074683;28;20227;-84
2022/09/24 08:33:35;;;;;;;1.33;0.40;;;18.20;99.90;;;;;;5071399;28;20244;-85
2022/09/24 08:36:02;;;;;;;0.80;0.80;;;18.20;99.90;;;;;;5074449;28;20288;-84
2022/09/24 08:38:28;;;;;;;1.10;0.70;;;18.60;99.90;;;;;;5069849;28;20694;-83
2022/09/24 08:40:59;;;;;;;1.87;0.90;;;18.80;99.90;;;;;;5071158;28;20197;-82
2022/09/24 08:43:44;;;;;;;0.60;0.60;;;18.70;99.90;;;;;;5074540;28;20427;-84
2022/09/24 08:49:46;;;;;;;1.77;0.87;;;19.60;99.90;;;;;;5074048;28;20228;-80
2022/09/24 08:52:44;;;;;;;3.97;0.90;;;19.10;99.90;;;;;;5071796;28;20227;-81
2022/09/24 08:55:42;;;;;;;4.37;0.53;;;19.10;99.90;;;;;;5068837;28;20213;-82
2022/09/24 08:58:29;;;;;;;3.53;0.90;;;18.60;99.90;;;;;;5071016;28;20271;-85
2022/09/24 09:01:00;;;;;;;1.63;0.73;;;18.20;99.90;;;;;;5072388;28;20221;-86
2022/09/24 09:03:55;;;;;;;1.00;0.53;;;18.60;99.90;;;;;;5073243;28;21003;-85
2022/09/24 09:06:52;;;;;;;2.93;1.20;;;18.20;99.90;;;;;;5073385;28;20630;-86
2022/09/24 09:09:42;;;;;;;2.87;0.93;;;18.10;99.90;;;;;;5073451;28;20233;-89
2022/09/24 09:12:20;;;;;;;6.07;0.50;;;17.90;99.90;;;;;;5069192;28;20583;-84
2022/09/24 09:15:16;;;;;;;0.60;0.57;;;17.20;99.90;;;;;;5086334;28;20217;-84
2022/09/24 09:18:03;;;;;;;1.70;0.67;;;17.40;99.90;;;;;;5071513;28;20205;-83
2022/09/24 09:20:39;;;;;;;3.53;0.80;;;17.30;99.90;;;;;;5072333;28;20212;-85
2022/09/24 09:23:21;;;;;;;1.93;0.90;;;17.40;99.90;;;;;;5071201;28;20267;-82
2022/09/24 09:25:55;;;;;;;3.40;0.77;;;17.40;99.90;;;;;;5068974;28;20173;-84
2022/09/24 09:28:21;;;;;;;6.73;1.53;;;17.50;99.90;;;;;;5072755;28;20235;-85
2022/09/24 09:30:59;;;;;;;2.33;0.50;;;17.30;99.90;;;;;;5075898;28;20518;-85
2022/09/24 09:33:58;;;;;;;1.73;0.50;;;17.10;99.90;;;;;;5068274;28;20221;-83
2022/09/24 09:36:44;;;;;;;8.40;0.97;;;17.30;99.90;;;;;;5070319;28;20248;-82
2022/09/24 09:39:48;;;;;;;1.77;0.80;;;18.00;99.90;;;;;;5070341;28;20326;-81
2022/09/24 09:42:34;;;;;;;3.40;0.60;;;18.10;99.90;;;;;;5069185;28;20626;-86
2022/09/24 09:45:31;;;;;;;3.30;0.80;;;18.20;99.90;;;;;;5069327;28;21014;-88
2022/09/24 09:47:58;;;;;;;0.47;0.40;;;18.10;99.90;;;;;;5064426;28;20212;-85
2022/09/24 09:50:31;;;;;;;1.43;0.50;;;17.80;99.90;;;;;;5056222;28;20918;-85
2022/09/24 09:52:57;;;;;;;3.87;1.00;;;17.60;99.90;;;;;;5071006;28;20264;-84
2022/09/24 09:55:50;;;;;;;1.27;0.50;;;17.70;99.90;;;;;;5070266;28;20283;-87
2022/09/24 09:58:24;;;;;;;0.73;0.50;;;18.00;99.90;;;;;;5065051;28;20216;-87
2022/09/24 10:00:51;;;;;;;5.67;1.30;;;18.20;99.90;;;;;;5065098;28;20225;-85
2022/09/24 10:03:32;;;;;;;1.73;0.87;;;18.80;99.90;;;;;;5071531;28;20220;-84
2022/09/24 10:06:02;;;;;;;0.93;0.60;;;19.00;99.90;;;;;;5067562;28;20623;-84
2022/09/24 10:08:28;;;;;;;2.17;0.70;;;19.40;99.90;;;;;;5072707;28;20239;-84
2022/09/24 10:10:59;;;;;;;0.93;0.60;;;19.80;99.90;;;;;;5034866;28;20189;-84
2022/09/24 10:13:26;;;;;;;1.10;0.67;;;19.40;99.90;;;;;;5073316;28;20332;-84
2022/09/24 10:16:02;;;;;;;1.57;0.83;;;18.30;99.90;;;;;;5072546;28;20959;-84
2022/09/24 10:18:33;;;;;;;0.80;0.63;;;17.80;99.90;;;;;;5071927;28;20224;-85
2022/09/24 10:21:03;;;;;;;2.00;0.70;;;17.50;99.90;;;;;;5068401;28;20277;-85
2022/09/24 10:23:40;;;;;;;1.83;0.53;;;17.80;99.90;;;;;;5073646;28;20222;-84
2022/09/24 10:26:08;;;;;;;2.97;0.57;;;18.20;99.90;;;;;;5071199;28;20177;-85
2022/09/24 10:31:37;;;;;;;1.80;0.60;;;18.30;99.90;;;;;;5073596;28;20216;-86
2022/09/24 10:34:16;;;;;;;1.10;0.43;;;18.00;99.90;;;;;;5070353;28;20216;-84
2022/09/24 10:36:56;;;;;;;1.33;0.50;;;17.80;99.90;;;;;;5069951;28;20240;-86
2022/09/24 10:39:22;;;;;;;1.27;0.67;;;17.60;99.90;;;;;;5069194;28;20230;-86
2022/09/24 10:41:50;;;;;;;1.63;0.60;;;17.80;99.90;;;;;;5054960;28;20208;-85
2022/09/24 10:44:18;;;;;;;0.87;0.83;;;17.90;99.90;;;;;;5068621;28;20545;-81
2022/09/24 10:46:55;;;;;;;4.83;1.23;;;18.00;99.90;;;;;;5048586;28;20724;-84
2022/09/24 10:49:33;;;;;;;3.80;0.70;;;17.80;99.90;;;;;;5071326;28;20610;-84
2022/09/24 10:52:31;;;;;;;1.20;0.40;;;17.50;99.90;;;;;;5072935;28;20212;-82
2022/09/24 10:55:41;;;;;;;1.10;1.00;;;17.20;99.90;;;;;;5072468;28;20213;-86
2022/09/24 10:58:24;;;;;;;2.20;0.50;;;17.10;99.90;;;;;;5003630;28;20230;-85
2022/09/24 11:01:18;;;;;;;1.60;0.40;;;17.30;99.90;;;;;;5065012;28;20212;-88
2022/09/24 11:03:46;;;;;;;0.63;0.63;;;17.70;99.90;;;;;;5068867;28;20573;-86
2022/09/24 11:06:24;;;;;;;1.40;0.60;;;17.70;99.90;;;;;;5073704;28;20209;-86
2022/09/24 11:09:01;;;;;;;1.90;0.83;;;17.80;99.90;;;;;;5078833;28;20667;-85
2022/09/24 11:11:30;;;;;;;0.40;0.40;;;18.10;99.90;;;;;;5074963;28;20235;-87
2022/09/24 11:14:20;;;;;;;3.10;0.93;;;18.30;99.90;;;;;;5077016;28;20209;-85
2022/09/24 11:17:02;;;;;;;2.77;0.90;;;18.30;99.90;;;;;;5074094;28;20236;-87
2022/09/24 11:20:13;;;;;;;3.70;0.80;;;19.20;99.90;;;;;;5076922;28;20865;-87
2022/09/24 11:22:49;;;;;;;3.00;0.53;;;20.20;99.90;;;;;;4976103;28;20220;-85
2022/09/24 11:25:28;;;;;;;0.50;0.50;;;20.80;99.90;;;;;;5075079;28;20256;-86
2022/09/24 11:28:19;;;;;;;4.63;0.90;;;20.30;99.90;;;;;;5079796;28;20574;-89
2022/09/24 11:31:05;;;;;;;3.77;1.10;;;19.60;99.90;;;;;;5069979;28;20224;-85
2022/09/24 11:34:07;;;;;;;1.87;0.60;;;19.60;99.90;;;;;;5075629;28;20273;-86
2022/09/24 11:36:39;;;;;;;6.03;0.63;;;20.10;99.90;;;;;;5076778;28;20247;-86
2022/09/24 11:39:24;;;;;;;3.40;0.60;;;20.00;99.90;;;;;;5073861;28;20254;-87
2022/09/24 11:42:15;;;;;;;2.30;0.57;;;19.10;99.90;;;;;;5075028;28;20228;-86
2022/09/24 11:45:14;;;;;;;1.97;0.87;;;19.00;99.90;;;;;;5076168;28;20217;-88
2022/09/24 11:47:59;;;;;;;1.90;0.80;;;19.50;99.90;;;;;;5074358;28;20579;-85
2022/09/24 11:50:39;;;;;;;1.40;0.80;;;19.70;99.90;;;;;;5076416;28;20228;-85
2022/09/24 11:53:16;;;;;;;3.17;0.93;;;19.80;99.90;;;;;;5074471;28;20267;-85
2022/09/24 11:55:52;;;;;;;2.87;0.80;;;19.90;99.90;;;;;;5074264;28;20180;-86
2022/09/24 11:58:42;;;;;;;0.70;0.70;;;19.60;99.90;;;;;;5075377;28;20281;-88
2022/09/24 12:01:25;;;;;;;2.37;0.70;;;19.90;99.90;;;;;;5074697;28;20315;-86
2022/09/24 12:04:18;;;;;;;2.00;0.60;;;19.50;99.90;;;;;;5076388;28;21229;-84
2022/09/24 12:06:53;;;;;;;1.23;0.60;;;19.20;99.90;;;;;;5074433;28;20228;-85
2022/09/24 12:09:36;;;;;;;3.17;0.60;;;18.70;99.90;;;;;;5072472;28;20306;-87
2022/09/24 12:12:27;;;;;;;5.07;0.90;;;18.50;99.90;;;;;;5089490;28;20232;-87
2022/09/24 12:15:03;;;;;;;2.40;1.00;;;18.40;99.90;;;;;;5074249;28;20217;-89
2022/09/24 12:17:43;;;;;;;2.30;0.70;;;18.50;99.90;;;;;;5073905;28;20226;-86
2022/09/24 12:20:28;;;;;;;0.43;0.37;;;18.60;99.90;;;;;;5079144;28;20275;-85
2022/09/24 12:23:03;;;;;;;3.73;0.60;;;18.50;99.90;;;;;;5078104;28;20245;-87
2022/09/24 12:25:38;;;;;;;0.50;0.50;;;18.70;99.90;;;;;;5087771;28;20188;-86
2022/09/24 12:28:04;;;;;;;0.60;0.50;;;18.20;99.90;;;;;;5085649;28;20219;-86
2022/09/24 12:33:47;;;;;;;0.87;0.50;;;18.10;99.90;;;;;;5077578;28;20540;-82
2022/09/24 12:36:23;;;;;;;1.03;0.50;;;18.10;99.90;;;;;;5072761;28;20227;-82
2022/09/24 12:39:15;;;;;;;3.07;0.57;;;18.10;99.90;;;;;;5072799;28;20298;-82
2022/09/24 12:41:48;;;;;;;0.60;0.60;;;18.20;99.90;;;;;;5071411;28;20220;-85
2022/09/24 12:44:21;;;;;;;4.47;0.77;;;18.10;99.90;;;;;;5071339;28;20220;-83
2022/09/24 12:46:52;;;;;;;0.80;0.80;;;18.00;99.90;;;;;;5072063;28;20173;-85
2022/09/24 12:49:24;;;;;;;1.53;0.53;;;17.90;99.90;;;;;;5073435;28;20679;-84
2022/09/24 12:52:14;;;;;;;2.43;0.60;;;18.00;99.90;;;;;;5072839;28;20324;-83
2022/09/24 12:54:41;;;;;;;2.97;0.60;;;18.20;99.90;;;;;;5068820;28;20212;-83
2022/09/24 12:57:14;;;;;;;2.40;1.03;;;18.20;99.90;;;;;;5057049;28;20228;-83
2022/09/24 12:59:55;;;;;;;0.60;0.37;;;18.70;99.90;;;;;;5090358;28;20216;-85
2022/09/24 13:02:27;;;;;;;3.37;0.80;;;18.60;99.90;;;;;;5073551;28;20217;-84
2022/09/24 13:05:01;;;;;;;0.37;0.37;;;18.30;99.90;;;;;;5072027;28;20272;-86
2022/09/24 13:07:29;;;;;;;0.63;0.50;;;17.90;99.90;;;;;;5071616;28;20204;-85
2022/09/24 13:09:55;;;;;;;0.70;0.70;;;18.00;99.90;;;;;;5074811;28;20343;-83
2022/09/24 13:12:31;;;;;;;0.80;0.80;;;18.20;99.90;;;;;;5035053;28;20485;-85
2022/09/24 13:15:01;;;;;;;1.83;1.13;;;18.40;99.90;;;;;;5074283;28;20234;-86
2022/09/24 13:17:32;;;;;;;0.73;0.50;;;18.10;99.90;;;;;;5071090;28;20223;-88
2022/09/24 13:20:05;;;;;;;4.33;0.80;;;17.80;99.90;;;;;;5070221;28;20257;-87
2022/09/24 13:22:35;;;;;;;0.70;0.70;;;17.70;99.90;;;;;;5072207;28;20204;-86
2022/09/24 13:25:07;;;;;;;3.33;0.70;;;17.80;99.90;;;;;;5056823;28;20303;-85